Spring Grove, Kansas
Current Conditions -  °F | °C
As of 12:00 AM on Saturday 20 Dec 2014 (Local Time) from KJLN Reporting Station
Haze Haze  
Wind Chill: 34°   Ceiling: 200
Heat Index: 38°   Visibility: 2mi
Dew Point: 38°   Wind: 5mph
Humidity: 100%   Direction: 270°W
Pressure: 30.21"   Gusts: NA
Location:  37.0394°N, 94.6644°W
Report Text: KJLN 200600Z AUTO 27004KT 2SM BR OVC002 03/03 A3021 RMK AO2 T00330033
Loading
Personal Weather Stations






























Interactive Weather Map New forecast layout! Learn more

10-Day Weather Forecast

Advertisements
Track Severe Weather on mobile